sensor_id;sensor_type;location;lat;lon;timestamp;P1;durP1;ratioP1;P2;durP2;ratioP2
75785;SDS011;64402;44.708;37.644;2023-07-13T00:01:47;4.75;;;2.00;;
75785;SDS011;64402;44.708;37.644;2023-07-13T00:04:19;5.88;;;2.10;;
75785;SDS011;64402;44.708;37.644;2023-07-13T00:06:46;6.95;;;2.45;;
75785;SDS011;64402;44.708;37.644;2023-07-13T00:09:13;4.95;;;2.33;;
75785;SDS011;64402;44.708;37.644;2023-07-13T00:11:42;5.15;;;2.45;;
75785;SDS011;64402;44.708;37.644;2023-07-13T00:14:09;5.72;;;2.40;;
75785;SDS011;64402;44.708;37.644;2023-07-13T00:16:37;8.60;;;2.50;;
75785;SDS011;64402;44.708;37.644;2023-07-13T00:19:04;6.90;;;2.63;;
75785;SDS011;64402;44.708;37.644;2023-07-13T00:23:57;5.88;;;2.30;;
75785;SDS011;64402;44.708;37.644;2023-07-13T00:26:24;5.40;;;2.25;;
75785;SDS011;64402;44.708;37.644;2023-07-13T00:28:50;5.50;;;2.38;;
75785;SDS011;64402;44.708;37.644;2023-07-13T00:31:17;5.40;;;2.28;;
75785;SDS011;64402;44.708;37.644;2023-07-13T00:33:43;6.90;;;2.75;;
75785;SDS011;64402;44.708;37.644;2023-07-13T00:36:10;7.93;;;2.10;;
75785;SDS011;64402;44.708;37.644;2023-07-13T00:38:36;5.85;;;2.25;;
75785;SDS011;64402;44.708;37.644;2023-07-13T00:41:03;7.05;;;2.33;;
75785;SDS011;64402;44.708;37.644;2023-07-13T00:48:24;9.77;;;2.42;;
75785;SDS011;64402;44.708;37.644;2023-07-13T00:50:55;5.30;;;2.10;;
75785;SDS011;64402;44.708;37.644;2023-07-13T00:53:24;4.68;;;2.13;;
75785;SDS011;64402;44.708;37.644;2023-07-13T00:55:53;6.07;;;2.33;;
75785;SDS011;64402;44.708;37.644;2023-07-13T00:58:20;4.70;;;1.98;;
75785;SDS011;64402;44.708;37.644;2023-07-13T01:00:47;5.57;;;2.30;;
75785;SDS011;64402;44.708;37.644;2023-07-13T01:03:15;5.22;;;2.35;;
75785;SDS011;64402;44.708;37.644;2023-07-13T01:05:41;6.38;;;2.63;;
75785;SDS011;64402;44.708;37.644;2023-07-13T01:08:07;7.13;;;2.35;;
75785;SDS011;64402;44.708;37.644;2023-07-13T01:10:34;5.70;;;2.33;;
75785;SDS011;64402;44.708;37.644;2023-07-13T01:13:10;7.22;;;2.55;;
75785;SDS011;64402;44.708;37.644;2023-07-13T01:18:10;6.30;;;2.42;;
75785;SDS011;64402;44.708;37.644;2023-07-13T01:20:58;6.80;;;2.33;;
75785;SDS011;64402;44.708;37.644;2023-07-13T01:23:27;5.78;;;2.20;;
75785;SDS011;64402;44.708;37.644;2023-07-13T01:25:55;7.88;;;2.40;;
75785;SDS011;64402;44.708;37.644;2023-07-13T01:28:23;5.85;;;2.33;;
75785;SDS011;64402;44.708;37.644;2023-07-13T01:30:53;4.70;;;2.08;;
75785;SDS011;64402;44.708;37.644;2023-07-13T01:33:20;5.00;;;2.00;;
75785;SDS011;64402;44.708;37.644;2023-07-13T01:35:46;9.82;;;2.08;;
75785;SDS011;64402;44.708;37.644;2023-07-13T01:38:14;7.35;;;2.40;;
75785;SDS011;64402;44.708;37.644;2023-07-13T01:40:41;4.43;;;2.10;;
75785;SDS011;64402;44.708;37.644;2023-07-13T01:43:07;4.95;;;2.13;;
75785;SDS011;64402;44.708;37.644;2023-07-13T01:45:33;6.28;;;2.00;;
75785;SDS011;64402;44.708;37.644;2023-07-13T01:48:00;8.65;;;2.40;;
75785;SDS011;64402;44.708;37.644;2023-07-13T01:50:26;10.43;;;1.98;;
75785;SDS011;64402;44.708;37.644;2023-07-13T01:52:53;7.68;;;2.38;;
75785;SDS011;64402;44.708;37.644;2023-07-13T01:55:20;11.35;;;2.65;;
75785;SDS011;64402;44.708;37.644;2023-07-13T01:57:46;5.03;;;2.42;;
75785;SDS011;64402;44.708;37.644;2023-07-13T02:00:13;7.60;;;2.33;;
75785;SDS011;64402;44.708;37.644;2023-07-13T02:02:39;6.97;;;2.40;;
75785;SDS011;64402;44.708;37.644;2023-07-13T02:05:05;5.93;;;2.28;;
75785;SDS011;64402;44.708;37.644;2023-07-13T02:07:32;8.85;;;2.85;;
75785;SDS011;64402;44.708;37.644;2023-07-13T02:09:58;6.95;;;2.25;;
75785;SDS011;64402;44.708;37.644;2023-07-13T02:12:24;6.18;;;2.50;;
75785;SDS011;64402;44.708;37.644;2023-07-13T02:14:50;5.35;;;2.42;;
75785;SDS011;64402;44.708;37.644;2023-07-13T02:17:17;7.22;;;2.72;;
75785;SDS011;64402;44.708;37.644;2023-07-13T02:19:43;10.55;;;2.80;;
75785;SDS011;64402;44.708;37.644;2023-07-13T02:22:09;8.40;;;3.00;;
75785;SDS011;64402;44.708;37.644;2023-07-13T02:24:35;6.88;;;2.38;;
75785;SDS011;64402;44.708;37.644;2023-07-13T02:27:01;5.57;;;2.80;;
75785;SDS011;64402;44.708;37.644;2023-07-13T02:29:27;5.32;;;2.40;;
75785;SDS011;64402;44.708;37.644;2023-07-13T02:31:53;5.22;;;2.50;;
75785;SDS011;64402;44.708;37.644;2023-07-13T02:34:19;5.15;;;2.15;;
75785;SDS011;64402;44.708;37.644;2023-07-13T02:36:46;6.38;;;2.65;;
75785;SDS011;64402;44.708;37.644;2023-07-13T02:39:13;6.13;;;2.70;;
75785;SDS011;64402;44.708;37.644;2023-07-13T02:41:39;5.80;;;2.88;;
75785;SDS011;64402;44.708;37.644;2023-07-13T02:44:05;6.47;;;2.75;;
75785;SDS011;64402;44.708;37.644;2023-07-13T02:46:34;7.47;;;2.60;;
75785;SDS011;64402;44.708;37.644;2023-07-13T02:49:02;7.47;;;2.80;;
75785;SDS011;64402;44.708;37.644;2023-07-13T02:51:29;6.03;;;2.45;;
75785;SDS011;64402;44.708;37.644;2023-07-13T02:53:56;5.43;;;2.60;;
75785;SDS011;64402;44.708;37.644;2023-07-13T02:56:23;7.72;;;2.78;;
75785;SDS011;64402;44.708;37.644;2023-07-13T02:58:50;5.60;;;2.75;;
75785;SDS011;64402;44.708;37.644;2023-07-13T03:01:17;9.32;;;3.72;;
75785;SDS011;64402;44.708;37.644;2023-07-13T03:06:11;7.97;;;3.50;;
75785;SDS011;64402;44.708;37.644;2023-07-13T03:08:39;6.05;;;2.80;;
75785;SDS011;64402;44.708;37.644;2023-07-13T03:11:07;7.65;;;3.00;;
75785;SDS011;64402;44.708;37.644;2023-07-13T03:13:38;5.68;;;2.92;;
75785;SDS011;64402;44.708;37.644;2023-07-13T03:16:06;6.65;;;2.85;;
75785;SDS011;64402;44.708;37.644;2023-07-13T03:18:32;8.13;;;3.22;;
75785;SDS011;64402;44.708;37.644;2023-07-13T03:20:58;7.00;;;2.95;;
75785;SDS011;64402;44.708;37.644;2023-07-13T03:23:25;8.90;;;3.30;;
75785;SDS011;64402;44.708;37.644;2023-07-13T03:26:00;7.60;;;3.53;;
75785;SDS011;64402;44.708;37.644;2023-07-13T03:28:33;7.07;;;2.70;;
75785;SDS011;64402;44.708;37.644;2023-07-13T03:31:00;6.45;;;3.10;;
75785;SDS011;64402;44.708;37.644;2023-07-13T03:33:30;8.32;;;2.85;;
75785;SDS011;64402;44.708;37.644;2023-07-13T03:35:57;6.32;;;2.92;;
75785;SDS011;64402;44.708;37.644;2023-07-13T03:38:23;8.45;;;2.95;;
75785;SDS011;64402;44.708;37.644;2023-07-13T03:40:49;8.07;;;3.20;;
75785;SDS011;64402;44.708;37.644;2023-07-13T03:43:15;6.32;;;3.05;;
75785;SDS011;64402;44.708;37.644;2023-07-13T03:45:41;5.35;;;2.70;;
75785;SDS011;64402;44.708;37.644;2023-07-13T03:48:07;8.23;;;3.00;;
75785;SDS011;64402;44.708;37.644;2023-07-13T03:50:34;13.43;;;3.33;;
75785;SDS011;64402;44.708;37.644;2023-07-13T03:53:00;7.13;;;3.10;;
75785;SDS011;64402;44.708;37.644;2023-07-13T03:55:26;7.20;;;3.38;;
75785;SDS011;64402;44.708;37.644;2023-07-13T03:57:59;8.50;;;2.85;;
75785;SDS011;64402;44.708;37.644;2023-07-13T04:00:45;7.65;;;3.67;;
75785;SDS011;64402;44.708;37.644;2023-07-13T04:03:11;8.65;;;3.80;;
75785;SDS011;64402;44.708;37.644;2023-07-13T04:05:38;8.77;;;4.05;;
75785;SDS011;64402;44.708;37.644;2023-07-13T04:08:06;7.85;;;3.75;;
75785;SDS011;64402;44.708;37.644;2023-07-13T04:10:32;10.10;;;3.78;;
75785;SDS011;64402;44.708;37.644;2023-07-13T04:12:58;8.57;;;3.75;;
75785;SDS011;64402;44.708;37.644;2023-07-13T04:15:24;7.70;;;3.85;;
75785;SDS011;64402;44.708;37.644;2023-07-13T04:17:50;14.77;;;4.00;;
75785;SDS011;64402;44.708;37.644;2023-07-13T04:20:16;7.07;;;3.28;;
75785;SDS011;64402;44.708;37.644;2023-07-13T04:22:43;8.35;;;4.43;;
75785;SDS011;64402;44.708;37.644;2023-07-13T04:25:09;7.15;;;3.65;;
75785;SDS011;64402;44.708;37.644;2023-07-13T04:27:35;8.15;;;3.90;;
75785;SDS011;64402;44.708;37.644;2023-07-13T04:30:01;7.68;;;3.80;;
75785;SDS011;64402;44.708;37.644;2023-07-13T04:32:27;8.38;;;3.88;;
75785;SDS011;64402;44.708;37.644;2023-07-13T04:34:53;6.57;;;3.47;;
75785;SDS011;64402;44.708;37.644;2023-07-13T04:37:21;7.72;;;3.55;;
75785;SDS011;64402;44.708;37.644;2023-07-13T04:39:47;9.65;;;3.88;;
75785;SDS011;64402;44.708;37.644;2023-07-13T04:42:13;6.57;;;3.53;;
75785;SDS011;64402;44.708;37.644;2023-07-13T04:44:39;6.18;;;3.40;;
75785;SDS011;64402;44.708;37.644;2023-07-13T04:47:05;7.50;;;3.33;;
75785;SDS011;64402;44.708;37.644;2023-07-13T04:49:31;8.25;;;3.40;;
75785;SDS011;64402;44.708;37.644;2023-07-13T04:51:57;7.35;;;3.10;;
75785;SDS011;64402;44.708;37.644;2023-07-13T04:54:23;7.15;;;3.15;;
75785;SDS011;64402;44.708;37.644;2023-07-13T04:56:49;7.57;;;3.33;;
75785;SDS011;64402;44.708;37.644;2023-07-13T04:59:15;7.18;;;3.28;;
75785;SDS011;64402;44.708;37.644;2023-07-13T05:01:42;6.45;;;3.03;;
75785;SDS011;64402;44.708;37.644;2023-07-13T05:06:35;10.23;;;3.40;;
75785;SDS011;64402;44.708;37.644;2023-07-13T05:09:01;5.97;;;2.55;;
75785;SDS011;64402;44.708;37.644;2023-07-13T05:11:28;5.38;;;3.00;;
75785;SDS011;64402;44.708;37.644;2023-07-13T05:13:54;7.35;;;3.13;;
75785;SDS011;64402;44.708;37.644;2023-07-13T05:16:20;6.55;;;3.03;;
75785;SDS011;64402;44.708;37.644;2023-07-13T05:18:47;9.75;;;2.83;;
75785;SDS011;64402;44.708;37.644;2023-07-13T05:21:13;6.60;;;3.08;;
75785;SDS011;64402;44.708;37.644;2023-07-13T05:23:39;9.00;;;3.97;;
75785;SDS011;64402;44.708;37.644;2023-07-13T05:26:07;6.50;;;3.10;;
75785;SDS011;64402;44.708;37.644;2023-07-13T05:28:33;7.15;;;3.75;;
75785;SDS011;64402;44.708;37.644;2023-07-13T05:30:59;7.10;;;3.65;;
75785;SDS011;64402;44.708;37.644;2023-07-13T05:33:26;6.10;;;3.00;;
75785;SDS011;64402;44.708;37.644;2023-07-13T05:35:52;5.50;;;3.05;;
75785;SDS011;64402;44.708;37.644;2023-07-13T05:38:19;6.15;;;2.63;;
75785;SDS011;64402;44.708;37.644;2023-07-13T05:40:45;5.13;;;2.60;;
75785;SDS011;64402;44.708;37.644;2023-07-13T05:43:12;5.72;;;2.60;;
75785;SDS011;64402;44.708;37.644;2023-07-13T05:45:38;5.32;;;2.42;;
75785;SDS011;64402;44.708;37.644;2023-07-13T05:48:05;5.55;;;2.75;;
75785;SDS011;64402;44.708;37.644;2023-07-13T05:50:31;7.30;;;2.90;;
75785;SDS011;64402;44.708;37.644;2023-07-13T05:52:57;8.00;;;2.78;;
75785;SDS011;64402;44.708;37.644;2023-07-13T05:55:23;6.65;;;3.03;;
75785;SDS011;64402;44.708;37.644;2023-07-13T05:57:49;9.82;;;2.80;;
75785;SDS011;64402;44.708;37.644;2023-07-13T06:00:16;8.48;;;3.20;;
75785;SDS011;64402;44.708;37.644;2023-07-13T06:02:42;4.95;;;2.60;;
75785;SDS011;64402;44.708;37.644;2023-07-13T06:05:08;7.60;;;2.75;;
75785;SDS011;64402;44.708;37.644;2023-07-13T06:07:35;5.85;;;2.80;;
75785;SDS011;64402;44.708;37.644;2023-07-13T06:10:01;6.00;;;2.80;;
75785;SDS011;64402;44.708;37.644;2023-07-13T06:12:27;8.50;;;2.85;;
75785;SDS011;64402;44.708;37.644;2023-07-13T06:14:53;6.88;;;2.72;;
75785;SDS011;64402;44.708;37.644;2023-07-13T06:17:19;5.75;;;2.45;;
75785;SDS011;64402;44.708;37.644;2023-07-13T06:19:46;8.65;;;3.00;;
75785;SDS011;64402;44.708;37.644;2023-07-13T06:22:12;7.97;;;2.83;;
75785;SDS011;64402;44.708;37.644;2023-07-13T06:24:38;7.65;;;3.00;;
75785;SDS011;64402;44.708;37.644;2023-07-13T06:27:04;6.72;;;2.55;;
75785;SDS011;64402;44.708;37.644;2023-07-13T06:29:31;12.30;;;3.20;;
75785;SDS011;64402;44.708;37.644;2023-07-13T06:31:57;8.57;;;2.50;;
75785;SDS011;64402;44.708;37.644;2023-07-13T06:34:23;6.30;;;2.70;;
75785;SDS011;64402;44.708;37.644;2023-07-13T06:36:49;5.03;;;2.72;;
75785;SDS011;64402;44.708;37.644;2023-07-13T06:39:15;5.78;;;2.67;;
75785;SDS011;64402;44.708;37.644;2023-07-13T06:41:41;5.93;;;2.95;;
75785;SDS011;64402;44.708;37.644;2023-07-13T06:44:07;5.80;;;2.75;;
75785;SDS011;64402;44.708;37.644;2023-07-13T06:46:34;6.35;;;2.75;;
75785;SDS011;64402;44.708;37.644;2023-07-13T06:49:00;5.18;;;2.50;;
75785;SDS011;64402;44.708;37.644;2023-07-13T06:51:26;7.15;;;2.75;;
75785;SDS011;64402;44.708;37.644;2023-07-13T06:53:52;6.20;;;3.10;;
75785;SDS011;64402;44.708;37.644;2023-07-13T06:56:19;5.65;;;2.58;;
75785;SDS011;64402;44.708;37.644;2023-07-13T06:58:45;8.02;;;2.55;;
75785;SDS011;64402;44.708;37.644;2023-07-13T07:01:12;6.72;;;2.60;;
75785;SDS011;64402;44.708;37.644;2023-07-13T07:03:38;5.00;;;2.28;;
75785;SDS011;64402;44.708;37.644;2023-07-13T07:06:15;7.95;;;2.90;;
75785;SDS011;64402;44.708;37.644;2023-07-13T07:08:42;5.45;;;2.55;;
75785;SDS011;64402;44.708;37.644;2023-07-13T07:11:11;6.35;;;2.72;;
75785;SDS011;64402;44.708;37.644;2023-07-13T07:13:38;6.95;;;2.50;;
75785;SDS011;64402;44.708;37.644;2023-07-13T07:16:05;5.95;;;2.60;;
75785;SDS011;64402;44.708;37.644;2023-07-13T07:18:32;6.28;;;2.42;;
75785;SDS011;64402;44.708;37.644;2023-07-13T07:20:58;5.90;;;2.45;;
75785;SDS011;64402;44.708;37.644;2023-07-13T07:23:24;5.35;;;2.70;;
75785;SDS011;64402;44.708;37.644;2023-07-13T07:25:50;5.95;;;2.70;;
75785;SDS011;64402;44.708;37.644;2023-07-13T07:28:17;4.63;;;2.00;;
75785;SDS011;64402;44.708;37.644;2023-07-13T07:30:47;6.28;;;2.30;;
75785;SDS011;64402;44.708;37.644;2023-07-13T07:33:14;6.88;;;2.50;;
75785;SDS011;64402;44.708;37.644;2023-07-13T07:35:42;7.03;;;2.63;;
75785;SDS011;64402;44.708;37.644;2023-07-13T07:38:08;7.55;;;2.97;;
75785;SDS011;64402;44.708;37.644;2023-07-13T07:40:38;7.90;;;2.83;;
75785;SDS011;64402;44.708;37.644;2023-07-13T07:43:09;9.18;;;3.40;;
75785;SDS011;64402;44.708;37.644;2023-07-13T07:45:38;5.80;;;2.78;;
75785;SDS011;64402;44.708;37.644;2023-07-13T07:48:05;7.45;;;2.50;;
75785;SDS011;64402;44.708;37.644;2023-07-13T07:52:57;8.00;;;3.33;;
75785;SDS011;64402;44.708;37.644;2023-07-13T07:55:24;6.70;;;2.95;;
75785;SDS011;64402;44.708;37.644;2023-07-13T07:57:54;7.22;;;2.92;;
75785;SDS011;64402;44.708;37.644;2023-07-13T08:00:22;5.85;;;2.90;;
75785;SDS011;64402;44.708;37.644;2023-07-13T08:02:48;6.22;;;2.90;;
75785;SDS011;64402;44.708;37.644;2023-07-13T08:05:14;5.65;;;2.63;;
75785;SDS011;64402;44.708;37.644;2023-07-13T08:07:40;5.63;;;2.40;;
75785;SDS011;64402;44.708;37.644;2023-07-13T08:10:06;5.82;;;2.47;;
75785;SDS011;64402;44.708;37.644;2023-07-13T08:12:33;7.30;;;2.72;;
75785;SDS011;64402;44.708;37.644;2023-07-13T08:15:00;7.50;;;2.70;;
75785;SDS011;64402;44.708;37.644;2023-07-13T08:17:27;6.13;;;2.30;;
75785;SDS011;64402;44.708;37.644;2023-07-13T08:19:53;8.13;;;2.45;;
75785;SDS011;64402;44.708;37.644;2023-07-13T08:22:19;5.68;;;2.25;;
75785;SDS011;64402;44.708;37.644;2023-07-13T08:24:47;5.47;;;2.20;;
75785;SDS011;64402;44.708;37.644;2023-07-13T08:29:47;7.68;;;3.03;;
75785;SDS011;64402;44.708;37.644;2023-07-13T08:32:14;11.63;;;5.75;;
75785;SDS011;64402;44.708;37.644;2023-07-13T08:34:41;10.80;;;4.32;;
75785;SDS011;64402;44.708;37.644;2023-07-13T08:37:07;6.72;;;2.78;;
75785;SDS011;64402;44.708;37.644;2023-07-13T08:39:34;13.35;;;5.53;;
75785;SDS011;64402;44.708;37.644;2023-07-13T08:42:02;6.22;;;2.90;;
75785;SDS011;64402;44.708;37.644;2023-07-13T08:44:40;7.18;;;2.92;;
75785;SDS011;64402;44.708;37.644;2023-07-13T08:47:19;6.28;;;2.70;;
75785;SDS011;64402;44.708;37.644;2023-07-13T08:49:48;6.50;;;2.60;;
75785;SDS011;64402;44.708;37.644;2023-07-13T08:52:35;6.22;;;2.70;;
75785;SDS011;64402;44.708;37.644;2023-07-13T08:55:17;4.85;;;2.20;;
75785;SDS011;64402;44.708;37.644;2023-07-13T08:58:34;8.70;;;2.40;;
75785;SDS011;64402;44.708;37.644;2023-07-13T09:00:44;5.10;;;2.30;;
75785;SDS011;64402;44.708;37.644;2023-07-13T09:03:24;8.75;;;2.78;;
75785;SDS011;64402;44.708;37.644;2023-07-13T09:05:58;5.45;;;2.30;;
75785;SDS011;64402;44.708;37.644;2023-07-13T09:16:25;7.20;;;2.53;;
75785;SDS011;64402;44.708;37.644;2023-07-13T09:18:52;6.28;;;2.47;;
75785;SDS011;64402;44.708;37.644;2023-07-13T09:21:22;4.57;;;2.40;;
75785;SDS011;64402;44.708;37.644;2023-07-13T09:23:53;5.68;;;2.33;;
75785;SDS011;64402;44.708;37.644;2023-07-13T09:26:25;7.25;;;2.63;;
75785;SDS011;64402;44.708;37.644;2023-07-13T09:28:59;6.65;;;2.50;;
75785;SDS011;64402;44.708;37.644;2023-07-13T09:31:33;5.40;;;2.00;;
75785;SDS011;64402;44.708;37.644;2023-07-13T09:34:02;5.53;;;2.60;;
75785;SDS011;64402;44.708;37.644;2023-07-13T09:36:33;5.88;;;2.08;;
75785;SDS011;64402;44.708;37.644;2023-07-13T09:39:03;4.50;;;1.80;;
75785;SDS011;64402;44.708;37.644;2023-07-13T09:41:37;5.50;;;1.98;;
75785;SDS011;64402;44.708;37.644;2023-07-13T09:44:16;5.88;;;2.15;;
75785;SDS011;64402;44.708;37.644;2023-07-13T09:46:54;5.18;;;2.13;;
75785;SDS011;64402;44.708;37.644;2023-07-13T09:49:28;4.88;;;2.00;;
75785;SDS011;64402;44.708;37.644;2023-07-13T09:52:05;5.43;;;2.00;;
75785;SDS011;64402;44.708;37.644;2023-07-13T09:54:36;5.50;;;1.90;;
75785;SDS011;64402;44.708;37.644;2023-07-13T09:57:03;5.50;;;1.90;;
75785;SDS011;64402;44.708;37.644;2023-07-13T09:59:42;5.43;;;2.20;;
75785;SDS011;64402;44.708;37.644;2023-07-13T10:02:31;4.70;;;1.83;;
75785;SDS011;64402;44.708;37.644;2023-07-13T10:05:00;5.03;;;2.10;;
75785;SDS011;64402;44.708;37.644;2023-07-13T10:07:30;4.43;;;1.73;;
75785;SDS011;64402;44.708;37.644;2023-07-13T10:09:58;3.88;;;1.70;;
75785;SDS011;64402;44.708;37.644;2023-07-13T10:12:28;5.10;;;1.80;;
75785;SDS011;64402;44.708;37.644;2023-07-13T10:15:01;4.93;;;2.00;;
75785;SDS011;64402;44.708;37.644;2023-07-13T10:17:30;5.18;;;1.92;;
75785;SDS011;64402;44.708;37.644;2023-07-13T10:20:06;5.90;;;2.00;;
75785;SDS011;64402;44.708;37.644;2023-07-13T10:25:31;6.25;;;1.88;;
75785;SDS011;64402;44.708;37.644;2023-07-13T10:28:02;5.72;;;1.85;;
75785;SDS011;64402;44.708;37.644;2023-07-13T10:30:50;5.00;;;2.00;;
75785;SDS011;64402;44.708;37.644;2023-07-13T10:33:19;7.47;;;1.83;;
75785;SDS011;64402;44.708;37.644;2023-07-13T10:35:46;4.55;;;1.67;;
75785;SDS011;64402;44.708;37.644;2023-07-13T10:38:18;5.88;;;2.00;;
75785;SDS011;64402;44.708;37.644;2023-07-13T10:40:54;3.88;;;1.60;;
75785;SDS011;64402;44.708;37.644;2023-07-13T10:43:23;5.22;;;1.80;;
75785;SDS011;64402;44.708;37.644;2023-07-13T10:45:53;5.30;;;2.00;;
75785;SDS011;64402;44.708;37.644;2023-07-13T10:48:20;3.55;;;1.60;;
75785;SDS011;64402;44.708;37.644;2023-07-13T10:50:50;3.75;;;1.70;;
75785;SDS011;64402;44.708;37.644;2023-07-13T10:53:33;5.05;;;2.08;;
75785;SDS011;64402;44.708;37.644;2023-07-13T10:56:03;3.40;;;1.38;;
75785;SDS011;64402;44.708;37.644;2023-07-13T10:58:40;4.90;;;1.90;;
75785;SDS011;64402;44.708;37.644;2023-07-13T11:06:11;4.30;;;1.90;;
75785;SDS011;64402;44.708;37.644;2023-07-13T11:09:17;9.30;;;1.77;;
75785;SDS011;64402;44.708;37.644;2023-07-13T11:11:44;4.22;;;1.80;;
75785;SDS011;64402;44.708;37.644;2023-07-13T11:14:27;4.00;;;1.60;;
75785;SDS011;64402;44.708;37.644;2023-07-13T11:22:42;4.82;;;1.88;;
75785;SDS011;64402;44.708;37.644;2023-07-13T11:25:34;4.40;;;1.80;;
75785;SDS011;64402;44.708;37.644;2023-07-13T11:28:11;5.53;;;1.95;;
75785;SDS011;64402;44.708;37.644;2023-07-13T11:30:43;5.63;;;1.90;;
75785;SDS011;64402;44.708;37.644;2023-07-13T11:33:43;5.25;;;1.98;;
75785;SDS011;64402;44.708;37.644;2023-07-13T11:36:16;5.45;;;1.77;;
75785;SDS011;64402;44.708;37.644;2023-07-13T11:38:57;4.65;;;1.90;;
75785;SDS011;64402;44.708;37.644;2023-07-13T11:41:27;4.15;;;1.75;;
75785;SDS011;64402;44.708;37.644;2023-07-13T11:46:38;5.70;;;1.92;;
75785;SDS011;64402;44.708;37.644;2023-07-13T11:49:05;5.85;;;2.00;;
75785;SDS011;64402;44.708;37.644;2023-07-13T11:51:35;5.60;;;2.25;;
75785;SDS011;64402;44.708;37.644;2023-07-13T11:54:04;6.07;;;2.13;;
75785;SDS011;64402;44.708;37.644;2023-07-13T11:59:15;10.57;;;4.43;;
75785;SDS011;64402;44.708;37.644;2023-07-13T12:01:51;4.47;;;1.88;;
75785;SDS011;64402;44.708;37.644;2023-07-13T12:04:20;4.15;;;1.88;;
75785;SDS011;64402;44.708;37.644;2023-07-13T12:06:57;4.68;;;1.77;;
75785;SDS011;64402;44.708;37.644;2023-07-13T12:09:29;4.80;;;1.70;;
75785;SDS011;64402;44.708;37.644;2023-07-13T12:11:56;6.63;;;2.20;;
75785;SDS011;64402;44.708;37.644;2023-07-13T12:14:25;9.00;;;2.28;;
75785;SDS011;64402;44.708;37.644;2023-07-13T12:16:52;4.75;;;1.52;;
75785;SDS011;64402;44.708;37.644;2023-07-13T12:19:20;5.22;;;1.90;;
75785;SDS011;64402;44.708;37.644;2023-07-13T12:21:49;6.65;;;1.75;;
75785;SDS011;64402;44.708;37.644;2023-07-13T12:24:18;4.80;;;1.70;;
75785;SDS011;64402;44.708;37.644;2023-07-13T12:26:59;4.88;;;1.80;;
75785;SDS011;64402;44.708;37.644;2023-07-13T12:29:28;5.05;;;2.03;;
75785;SDS011;64402;44.708;37.644;2023-07-13T12:31:54;4.88;;;1.70;;
75785;SDS011;64402;44.708;37.644;2023-07-13T12:34:22;6.65;;;2.03;;
75785;SDS011;64402;44.708;37.644;2023-07-13T12:36:54;5.05;;;1.77;;
75785;SDS011;64402;44.708;37.644;2023-07-13T12:39:25;6.05;;;1.70;;
75785;SDS011;64402;44.708;37.644;2023-07-13T12:44:46;5.55;;;1.70;;
75785;SDS011;64402;44.708;37.644;2023-07-13T12:47:13;5.75;;;1.88;;
75785;SDS011;64402;44.708;37.644;2023-07-13T12:49:42;6.97;;;1.63;;
75785;SDS011;64402;44.708;37.644;2023-07-13T12:52:14;6.65;;;2.00;;
75785;SDS011;64402;44.708;37.644;2023-07-13T12:54:51;3.92;;;1.70;;
75785;SDS011;64402;44.708;37.644;2023-07-13T12:57:22;4.10;;;1.65;;
75785;SDS011;64402;44.708;37.644;2023-07-13T13:02:25;5.72;;;1.70;;
75785;SDS011;64402;44.708;37.644;2023-07-13T13:04:55;5.55;;;1.65;;
75785;SDS011;64402;44.708;37.644;2023-07-13T13:07:22;5.22;;;1.80;;
75785;SDS011;64402;44.708;37.644;2023-07-13T13:09:49;4.53;;;1.73;;
75785;SDS011;64402;44.708;37.644;2023-07-13T13:12:15;6.18;;;2.05;;
75785;SDS011;64402;44.708;37.644;2023-07-13T13:14:42;4.63;;;1.63;;
75785;SDS011;64402;44.708;37.644;2023-07-13T13:17:19;5.47;;;1.85;;
75785;SDS011;64402;44.708;37.644;2023-07-13T13:19:49;5.88;;;1.73;;
75785;SDS011;64402;44.708;37.644;2023-07-13T13:22:18;6.30;;;2.03;;
75785;SDS011;64402;44.708;37.644;2023-07-13T13:24:44;4.55;;;1.60;;
75785;SDS011;64402;44.708;37.644;2023-07-13T13:27:17;4.05;;;1.55;;
75785;SDS011;64402;44.708;37.644;2023-07-13T13:29:45;7.93;;;1.70;;
75785;SDS011;64402;44.708;37.644;2023-07-13T13:32:13;7.68;;;3.22;;
75785;SDS011;64402;44.708;37.644;2023-07-13T13:34:40;5.15;;;1.85;;
75785;SDS011;64402;44.708;37.644;2023-07-13T13:37:28;4.03;;;1.52;;
75785;SDS011;64402;44.708;37.644;2023-07-13T13:39:53;7.95;;;2.20;;
75785;SDS011;64402;44.708;37.644;2023-07-13T13:42:20;5.65;;;2.63;;
75785;SDS011;64402;44.708;37.644;2023-07-13T13:44:50;4.45;;;1.75;;
75785;SDS011;64402;44.708;37.644;2023-07-13T13:47:20;7.68;;;2.10;;
75785;SDS011;64402;44.708;37.644;2023-07-13T13:49:47;6.85;;;1.92;;
75785;SDS011;64402;44.708;37.644;2023-07-13T13:52:13;6.88;;;2.13;;
75785;SDS011;64402;44.708;37.644;2023-07-13T13:54:39;4.50;;;1.83;;
75785;SDS011;64402;44.708;37.644;2023-07-13T13:57:05;3.85;;;1.50;;
75785;SDS011;64402;44.708;37.644;2023-07-13T13:59:32;4.18;;;1.58;;
75785;SDS011;64402;44.708;37.644;2023-07-13T14:02:07;4.93;;;1.63;;
75785;SDS011;64402;44.708;37.644;2023-07-13T14:04:53;4.53;;;1.85;;
75785;SDS011;64402;44.708;37.644;2023-07-13T14:07:22;3.95;;;1.45;;
75785;SDS011;64402;44.708;37.644;2023-07-13T14:09:48;5.93;;;1.98;;
75785;SDS011;64402;44.708;37.644;2023-07-13T14:12:14;5.68;;;1.90;;
75785;SDS011;64402;44.708;37.644;2023-07-13T14:14:41;4.88;;;2.00;;
75785;SDS011;64402;44.708;37.644;2023-07-13T14:17:28;4.60;;;1.90;;
75785;SDS011;64402;44.708;37.644;2023-07-13T14:19:54;5.53;;;1.88;;
75785;SDS011;64402;44.708;37.644;2023-07-13T14:22:23;6.57;;;2.13;;
75785;SDS011;64402;44.708;37.644;2023-07-13T14:24:54;5.00;;;1.85;;
75785;SDS011;64402;44.708;37.644;2023-07-13T14:27:21;4.63;;;1.90;;
75785;SDS011;64402;44.708;37.644;2023-07-13T14:29:49;11.07;;;5.78;;
75785;SDS011;64402;44.708;37.644;2023-07-13T14:32:15;6.95;;;2.88;;
75785;SDS011;64402;44.708;37.644;2023-07-13T14:34:41;7.38;;;1.83;;
75785;SDS011;64402;44.708;37.644;2023-07-13T14:37:17;4.20;;;1.60;;
75785;SDS011;64402;44.708;37.644;2023-07-13T14:39:49;6.28;;;1.75;;
75785;SDS011;64402;44.708;37.644;2023-07-13T14:42:17;4.80;;;1.85;;
75785;SDS011;64402;44.708;37.644;2023-07-13T14:44:43;6.85;;;1.70;;
75785;SDS011;64402;44.708;37.644;2023-07-13T14:47:10;8.60;;;2.15;;
75785;SDS011;64402;44.708;37.644;2023-07-13T14:49:40;4.20;;;1.75;;
75785;SDS011;64402;44.708;37.644;2023-07-13T14:52:15;5.50;;;1.70;;
75785;SDS011;64402;44.708;37.644;2023-07-13T14:54:47;4.18;;;1.65;;
75785;SDS011;64402;44.708;37.644;2023-07-13T14:59:40;6.60;;;1.60;;
75785;SDS011;64402;44.708;37.644;2023-07-13T15:04:58;4.47;;;1.50;;
75785;SDS011;64402;44.708;37.644;2023-07-13T15:07:24;4.82;;;1.63;;
75785;SDS011;64402;44.708;37.644;2023-07-13T15:09:51;5.25;;;1.83;;
75785;SDS011;64402;44.708;37.644;2023-07-13T15:12:17;6.95;;;1.60;;
75785;SDS011;64402;44.708;37.644;2023-07-13T15:14:44;3.97;;;1.40;;
75785;SDS011;64402;44.708;37.644;2023-07-13T15:17:18;3.75;;;1.52;;
75785;SDS011;64402;44.708;37.644;2023-07-13T15:19:56;9.40;;;1.65;;
75785;SDS011;64402;44.708;37.644;2023-07-13T15:24:48;3.85;;;1.50;;
75785;SDS011;64402;44.708;37.644;2023-07-13T15:27:14;3.78;;;1.60;;
75785;SDS011;64402;44.708;37.644;2023-07-13T15:29:40;4.25;;;1.45;;
75785;SDS011;64402;44.708;37.644;2023-07-13T15:32:14;5.70;;;1.70;;
75785;SDS011;64402;44.708;37.644;2023-07-13T15:34:40;5.97;;;1.63;;
75785;SDS011;64402;44.708;37.644;2023-07-13T15:37:15;6.22;;;1.85;;
75785;SDS011;64402;44.708;37.644;2023-07-13T15:39:45;4.93;;;1.50;;
75785;SDS011;64402;44.708;37.644;2023-07-13T15:42:15;4.95;;;1.75;;
75785;SDS011;64402;44.708;37.644;2023-07-13T15:44:44;4.28;;;1.60;;